Main page
METAR-TAF:

METAR-TAF

Airports :

Velana International Airport

Malé, Maldives

latitude: 04-12N, longitude: 073-32E, elevation: 2 m

Current weather observation

The report was made 30 minutes ago, at 01:00 UTC
Wind 4 kt from the North/Northwest
Temperature 29°C
Humidity 84%
Pressure 1008 hPa
Visibility 10 km or more
Few clouds at a height of 1800 ft, Towering cumulus.
Broken clouds at a height of 13000 ft

METAR: VRMM 190100Z 34004KT 9999 FEW018TCU BKN130 29/26 Q1008

Time: 06:30 (01:30 UTC)

Forecast

The report was made 2 hours and 30 minutes ago, at 23:00 UTC
Forecast valid from 19 at 00 UTC to 20 at 06 UTC
Wind 7 kt from the North/Northwest
Visibility 10 km or more
Few clouds at a height of 1800 ft, Towering cumulus.
Broken clouds at a height of 11000 ft
Temporary
from 19 at 00 UTC to 19 at 06 UTC
Visibility: 5000 m
Few clouds at a height of 1800 ft, Cumulonimbus.
thunderstorm, light rain

TAF: VRMM 182300Z 1900/2006 33007KT 9999 FEW018TCU BKN110 TEMPO 1900/1906 5000 -TSRA FEW018CB

Weather observations and forecasts of more than 4000 airports (METAR and TAF reports).

The available stations are represented by yellow and red dots on the map.

Hover mouse over dot to see the name of the station.

Then click to see weather observations and forecasts.

To change the map : click on the green buttons with a black cross to zoom in, on the green button with a dash to zoom out, or on the green arrows for adjacent maps.


METAR-TAF: